createdAt,value
2022-12-03T00:01:17.235Z,52.09
2022-12-03T00:06:19.181Z,52.03
2022-12-03T00:11:21.121Z,52.09
2022-12-03T00:16:23.460Z,52.09
2022-12-03T00:21:25.619Z,52.04
2022-12-03T00:26:27.787Z,52.06
2022-12-03T00:31:29.997Z,51.98
2022-12-03T00:36:32.075Z,52.15
2022-12-03T00:41:34.249Z,52.16
2022-12-03T00:46:36.324Z,52.23
2022-12-03T00:51:38.383Z,52.03
2022-12-03T00:56:40.461Z,51.98
2022-12-03T01:01:42.728Z,52.12
2022-12-03T01:06:44.908Z,52.16
2022-12-03T01:11:46.968Z,52.35
2022-12-03T01:16:49.094Z,52.16
2022-12-03T01:21:52.079Z,52.11
2022-12-03T01:26:55.987Z,52.22
2022-12-03T01:32:16.371Z,52.23
2022-12-03T01:37:18.714Z,52.33
2022-12-03T01:42:34.087Z,52.19
2022-12-03T01:47:38.144Z,52.08
2022-12-03T01:52:41.090Z,52.12
2022-12-03T01:57:55.165Z,52.08
2022-12-03T02:03:02.419Z,51.98
2022-12-03T02:08:34.044Z,52.03
2022-12-03T02:13:36.771Z,52.08
2022-12-03T02:18:38.810Z,52.16
2022-12-03T02:24:14.847Z,52.07
2022-12-03T02:29:16.935Z,52.09
2022-12-03T02:34:41.325Z,51.98
2022-12-03T02:39:46.835Z,52.16
2022-12-03T02:44:48.820Z,52.02
2022-12-03T02:49:52.291Z,52.03
2022-12-03T02:54:55.146Z,52.14
2022-12-03T02:59:57.433Z,52.02
2022-12-03T03:04:59.732Z,52.30
2022-12-03T03:10:03.336Z,52.17
2022-12-03T03:15:06.349Z,52.02
2022-12-03T03:20:11.841Z,52.06
2022-12-03T03:25:18.871Z,52.08
2022-12-03T03:30:21.226Z,52.22
2022-12-03T03:35:25.167Z,52.33
2022-12-03T03:40:27.945Z,52.37
2022-12-03T03:45:30.185Z,52.13
2022-12-03T03:50:32.899Z,52.03
2022-12-03T03:55:35.190Z,52.06
2022-12-03T04:00:37.429Z,52.16
2022-12-03T04:05:39.924Z,52.23
2022-12-03T04:11:00.728Z,52.22
2022-12-03T04:16:03.099Z,51.98
2022-12-03T04:21:23.639Z,52.18
2022-12-03T04:26:44.423Z,52.26
2022-12-03T04:32:05.787Z,52.38
2022-12-03T04:37:07.911Z,52.31
2022-12-03T04:42:09.918Z,52.33
2022-12-03T04:47:20.570Z,52.21
2022-12-03T04:52:22.659Z,52.28
2022-12-03T04:57:24.639Z,52.33
2022-12-03T05:02:26.745Z,52.29
2022-12-03T05:07:28.879Z,52.38
2022-12-03T05:12:31.012Z,52.10
2022-12-03T05:17:33.125Z,52.05
2022-12-03T05:22:35.072Z,51.99
2022-12-03T05:27:37.199Z,52.13
2022-12-03T05:32:39.231Z,52.24
2022-12-03T05:37:42.964Z,52.38
2022-12-03T05:42:54.036Z,52.40
2022-12-03T05:47:57.969Z,52.44
2022-12-03T05:53:00.725Z,52.22
2022-12-03T05:58:03.298Z,52.15
2022-12-03T06:03:06.532Z,52.27
2022-12-03T06:08:08.617Z,52.37
2022-12-03T06:13:10.630Z,52.55
2022-12-03T06:18:12.615Z,52.32
2022-12-03T06:23:14.617Z,52.13
2022-12-03T06:28:16.729Z,52.16
2022-12-03T06:33:18.675Z,52.21
2022-12-03T06:38:20.603Z,52.32
2022-12-03T06:43:23.822Z,52.31
2022-12-03T06:48:25.769Z,52.07
2022-12-03T06:53:27.739Z,51.91
2022-12-03T06:58:29.711Z,51.94
2022-12-03T07:03:31.822Z,52.15
2022-12-03T07:08:34.438Z,52.20
2022-12-03T07:13:36.628Z,52.22
2022-12-03T07:18:38.595Z,52.13
2022-12-03T07:23:41.025Z,52.34
2022-12-03T07:28:43.003Z,52.38
2022-12-03T07:33:45.145Z,52.46
2022-12-03T07:38:47.133Z,52.72
2022-12-03T07:43:50.990Z,52.74
2022-12-03T07:48:52.985Z,52.72
2022-12-03T07:53:54.935Z,52.71
2022-12-03T07:58:57.180Z,52.61
2022-12-03T08:03:59.194Z,52.52
2022-12-03T08:09:01.130Z,52.68
2022-12-03T08:14:14.635Z,52.73
2022-12-03T08:19:18.438Z,52.60
2022-12-03T08:24:21.758Z,52.55
2022-12-03T08:29:24.680Z,52.76
2022-12-03T08:34:28.605Z,52.67
2022-12-03T08:39:33.411Z,52.64
2022-12-03T08:44:41.049Z,52.56
2022-12-03T08:49:51.856Z,52.53
2022-12-03T08:54:56.256Z,52.60
2022-12-03T09:00:22.753Z,52.78
2022-12-03T09:05:32.723Z,52.70
2022-12-03T09:10:34.527Z,52.82
2022-12-03T09:15:36.541Z,52.69
2022-12-03T09:20:38.672Z,52.77
2022-12-03T09:25:40.838Z,52.79
2022-12-03T09:30:42.875Z,52.50
2022-12-03T09:35:44.871Z,52.49
2022-12-03T09:40:46.877Z,52.47
2022-12-03T09:45:49.905Z,52.49
2022-12-03T09:50:52.802Z,53.00
2022-12-03T09:55:58.113Z,53.07
2022-12-03T10:01:00.333Z,53.07
2022-12-03T10:06:02.409Z,53.20
2022-12-03T10:11:04.371Z,53.37
2022-12-03T10:16:11.237Z,53.55
2022-12-03T10:21:25.591Z,53.61
2022-12-03T10:26:40.965Z,53.76
2022-12-03T10:31:42.978Z,53.55
2022-12-03T10:36:44.947Z,53.90
2022-12-03T10:41:47.856Z,53.87
2022-12-03T10:47:13.829Z,53.78
2022-12-03T10:52:26.012Z,53.89
2022-12-03T10:57:28.476Z,54.13
2022-12-03T11:02:30.495Z,54.43
2022-12-03T11:07:32.689Z,54.84
2022-12-03T11:12:35.779Z,54.47
2022-12-03T11:17:44.520Z,54.97
2022-12-03T11:22:51.072Z,55.12
2022-12-03T11:28:14.693Z,55.25
2022-12-03T11:33:30.674Z,55.60
2022-12-03T11:38:38.491Z,55.27
2022-12-03T11:43:52.575Z,55.31
2022-12-03T11:48:56.877Z,55.46
2022-12-03T11:54:19.082Z,55.68
2022-12-03T11:59:21.022Z,55.52
2022-12-03T12:04:38.180Z,55.73
2022-12-03T12:09:56.003Z,55.79
2022-12-03T12:14:59.390Z,55.72
2022-12-03T12:20:30.728Z,55.65
2022-12-03T12:25:41.854Z,55.54
2022-12-03T12:30:43.858Z,55.45
2022-12-03T12:35:45.981Z,55.71
2022-12-03T12:40:50.366Z,55.91
2022-12-03T12:46:13.637Z,55.88
2022-12-03T12:51:20.959Z,55.89
2022-12-03T12:56:30.241Z,55.81
2022-12-03T13:01:32.723Z,56.19
2022-12-03T13:06:34.918Z,55.82
2022-12-03T13:11:46.119Z,56.10
2022-12-03T13:16:53.421Z,56.00
2022-12-03T13:21:57.398Z,56.04
2022-12-03T13:27:00.482Z,56.14
2022-12-03T13:32:11.702Z,56.04
2022-12-03T13:37:22.543Z,56.06
2022-12-03T13:42:42.417Z,56.34
2022-12-03T13:47:58.755Z,56.44
2022-12-03T13:53:22.242Z,56.49
2022-12-03T13:58:24.168Z,56.56
2022-12-03T14:03:26.133Z,56.50
2022-12-03T14:08:28.034Z,56.36
2022-12-03T14:13:29.975Z,56.39
2022-12-03T14:18:31.999Z,56.21
2022-12-03T14:23:34.028Z,56.12
2022-12-03T14:28:36.005Z,56.28
2022-12-03T14:33:38.033Z,56.51
2022-12-03T14:38:40.071Z,56.17
2022-12-03T14:43:42.188Z,56.03
2022-12-03T14:48:44.220Z,55.88
2022-12-03T14:53:46.246Z,55.94
2022-12-03T14:58:48.312Z,55.89
2022-12-03T15:03:50.497Z,56.07
2022-12-03T15:08:52.464Z,55.98
2022-12-03T15:13:54.613Z,55.95
2022-12-03T15:18:56.619Z,55.92
2022-12-03T15:24:00.036Z,55.80
2022-12-03T15:29:02.025Z,55.37
2022-12-03T15:34:04.037Z,55.09
2022-12-03T15:39:06.101Z,55.08
2022-12-03T15:44:08.145Z,55.25
2022-12-03T15:49:10.087Z,55.18
2022-12-03T15:54:12.501Z,55.10
2022-12-03T15:59:14.583Z,55.02
2022-12-03T16:04:16.535Z,54.75
2022-12-03T16:09:23.741Z,54.96
2022-12-03T16:14:28.820Z,54.95
2022-12-03T16:19:30.732Z,54.84
2022-12-03T16:24:32.967Z,54.76
2022-12-03T16:29:35.308Z,54.78
2022-12-03T16:34:37.340Z,54.83
2022-12-03T16:39:39.368Z,55.07
2022-12-03T16:44:56.570Z,55.16
2022-12-03T16:49:58.539Z,55.28
2022-12-03T16:55:00.599Z,55.11
2022-12-03T17:00:02.638Z,54.80
2022-12-03T17:05:05.327Z,54.74
2022-12-03T17:10:08.350Z,54.80
2022-12-03T17:15:10.868Z,54.73
2022-12-03T17:20:14.754Z,54.45
2022-12-03T17:25:16.551Z,54.36
2022-12-03T17:30:18.562Z,54.39
2022-12-03T17:35:20.505Z,54.48
2022-12-03T17:40:22.738Z,54.54
2022-12-03T17:45:24.872Z,54.48
2022-12-03T17:50:26.959Z,54.09
2022-12-03T17:55:38.349Z,54.07
2022-12-03T18:00:43.877Z,54.05
2022-12-03T18:05:46.087Z,54.28
2022-12-03T18:10:48.304Z,54.29
2022-12-03T18:15:50.265Z,54.13
2022-12-03T18:20:53.491Z,54.16
2022-12-03T18:25:56.012Z,53.95
2022-12-03T18:30:59.122Z,54.17
2022-12-03T18:36:01.335Z,54.07
2022-12-03T18:41:03.568Z,53.87
2022-12-03T18:46:31.271Z,53.55
2022-12-03T18:51:32.852Z,53.60
2022-12-03T18:56:34.869Z,53.70
2022-12-03T19:01:37.114Z,53.74
2022-12-03T19:06:40.558Z,53.87
2022-12-03T19:11:42.609Z,53.72
2022-12-03T19:16:44.814Z,53.70
2022-12-03T19:21:46.960Z,53.63
2022-12-03T19:26:49.108Z,53.50
2022-12-03T19:31:52.422Z,53.61
2022-12-03T19:36:54.510Z,53.39
2022-12-03T19:41:56.523Z,53.44
2022-12-03T19:46:58.590Z,53.06
2022-12-03T19:52:00.688Z,53.16
2022-12-03T19:57:02.721Z,53.13
2022-12-03T20:02:05.014Z,53.24
2022-12-03T20:07:07.097Z,53.12
2022-12-03T20:12:09.080Z,53.47
2022-12-03T20:17:11.211Z,53.35
2022-12-03T20:22:13.192Z,53.04
2022-12-03T20:27:19.622Z,53.07
2022-12-03T20:32:24.559Z,53.22
2022-12-03T20:37:26.780Z,53.20
2022-12-03T20:42:28.843Z,53.27
2022-12-03T20:47:30.910Z,53.27
2022-12-03T20:52:32.923Z,53.16
2022-12-03T20:57:34.966Z,53.01
2022-12-03T21:02:38.373Z,53.13
2022-12-03T21:07:40.454Z,52.83
2022-12-03T21:12:42.455Z,52.77
2022-12-03T21:17:44.437Z,52.79
2022-12-03T21:22:50.225Z,52.72
2022-12-03T21:27:52.374Z,52.85
2022-12-03T21:32:54.572Z,52.95
2022-12-03T21:37:56.598Z,52.79
2022-12-03T21:42:58.683Z,52.77
2022-12-03T21:48:00.780Z,52.74
2022-12-03T21:53:02.843Z,53.03
2022-12-03T21:58:04.877Z,53.06
2022-12-03T22:03:06.861Z,53.07
2022-12-03T22:08:09.169Z,52.80
2022-12-03T22:13:11.270Z,52.81
2022-12-03T22:18:13.409Z,52.78
2022-12-03T22:23:15.445Z,52.86
2022-12-03T22:28:17.383Z,52.92
2022-12-03T22:33:19.478Z,52.78
2022-12-03T22:38:21.554Z,52.76
2022-12-03T22:43:24.292Z,52.82
2022-12-03T22:48:26.304Z,52.51
2022-12-03T22:53:28.273Z,52.67
2022-12-03T22:58:31.614Z,52.66
2022-12-03T23:03:34.063Z,52.67
2022-12-03T23:08:36.123Z,52.70
2022-12-03T23:13:38.385Z,52.47
2022-12-03T23:18:40.458Z,52.45
2022-12-03T23:23:42.516Z,52.45
2022-12-03T23:28:45.915Z,52.69
2022-12-03T23:33:48.189Z,52.50
2022-12-03T23:38:50.713Z,52.62
2022-12-03T23:43:53.319Z,52.63
2022-12-03T23:48:55.829Z,52.43
2022-12-03T23:53:57.895Z,52.43
2022-12-03T23:58:59.954Z,52.55
